Ana Sayfa
METAR-TAF:

METAR-TAF

Havaalanları :

Pontiac Municipal Airport

Pontiac, Illinois, Amerika Birleşik Devletleri

Enlem: 40-55-25N, Boylam: 088-37-31W, yükseklik: 201 m

Güncel hava durumu gözlemi

Rapor saat 12:35 UTC de 26 dakika önce yapıldı.
Rüzgar güneydan 11 kt ve 20 kt'a kadar ani rüzgarlar
Sıcaklık 23°C
Nem 50%
Basınç 1014 hPa
Görüş mesafesi: 16.1 km
Açık gökyüzü

METAR: KPNT 161235Z AUTO 17011G20KT 10SM CLR 23/12 A2995 RMK AO2 T02320121

Saat: 08:01 (13:01 UTC)


TAF: eksik

4.000'den fazla havaalanı için hava durumu gözlemleri ve tahminleri (METAR ve TAF raporları).

Kullanılabilir istasyonlar harita üzerinde sarı ve kırmızı noktalarla gösterilir.

İstasyonun adını görmek için fareyi noktanın üzerinde gezdirin.

Sonrasında hava gözlem ve tahminlerini görmek için tıklayın.

Haritayı değiştirmek için: yaklaştırmak için siyah artı işaretli yeşil düğmeye ve uzaklaştırmak için de eksi işaretli düğmeye hızla tıklayın; bitişik haritalar için yeşil okları kullanın.


METAR-TAF: